King of Scandinavia — OVOL2 — position and weather

sailwx.info

Track history (hours):
 
Tides and Currents Weather Stations Pressure Air Temp Water Temp Dewpoint Dewpoint Depression Visibility Wind Speed Wind Dir Waves Ship Positions

King of Scandinavia

Ship's website: http://www.dfds.co.uk/DSW/EN/OnBoard/na/KING.htm

Last reported at 2019-May-20 16:30 UTC. Time now 2019-May-20 16:57 UTC.
Position N 54°57' W 001°13'.

Length 166 m; beam 27.6 m; draft 6.2 m.

Type: Ship. MMSI: 220449000.

Date/timePositionNaut miles runAvg speedWind from/ knotsBaromVisibWave heightAir tempDewpointWater temp
2019-May-20 16:30N 54°57' W 001°13'816.1
2019-May-20 16:00N 55°01' W 001°26'1 2.6
2019-May-20 15:30N 54°59' W 001°27'0 0.0
2019-May-20 14:59N 54°59' W 001°27'0 0.0
2019-May-20 14:29N 54°59' W 001°27'0 0.0
2019-May-20 13:59N 54°59' W 001°27'0 0.0
2019-May-20 13:29N 54°59' W 001°27'0 0.0
2019-May-20 12:59N 54°59' W 001°27'0 0.0
2019-May-20 12:29N 54°59' W 001°27'0 0.0
2019-May-20 11:59N 54°59' W 001°27'0 0.0
2019-May-20 11:20N 54°59' W 001°27'0 0.0
2019-May-20 10:50N 54°59' W 001°27'0 0.0
2019-May-20 10:20N 54°59' W 001°27'0 0.0
2019-May-20 09:50N 54°59' W 001°27'0 0.0
2019-May-20 09:23N 54°59' W 001°27'0 0.0
2019-May-20 08:56N 54°59' W 001°27'0 0.0
2019-May-20 08:23N 54°59' W 001°27'0 0.5
2019-May-20 08:00N 54°60' W 001°27'5 9.3
2019-May-20 07:30N 54°60' W 001°19'1019.6
2019-May-20 07:00N 54°54' W 001°05'7917.8
2019-May-20 02:33N 54°10' E 000°49'316.4
2019-May-20 02:23N 54°09' E 000°52'716.7
2019-May-20 02:00N 54°05' E 001°02'817.1
2019-May-20 01:30N 53°60' E 001°13'917.4
2019-May-20 01:00N 53°54' E 001°24'917.5
2019-May-20 00:30N 53°49' E 001°36'917.0
2019-May-20 00:00N 53°47' E 001°50'816.9
2019-May-19 23:31N 53°43' E 002°03'916.6
2019-May-19 22:59N 53°39' E 002°16'7614.7
2019-May-19 17:49N 52°49' E 003°52'2015.2
2019-May-19 16:31N 52°36' E 004°17'014.0
2019-May-19 16:31N 52°36' E 004°17'815.5
2019-May-19 16:01N 52°31' E 004°27'611.8
2019-May-19 15:30N 52°28' E 004°35'0 0.3
2019-May-19 15:00N 52°28' E 004°35'0 0.0
2019-May-19 14:29N 52°28' E 004°35'0 0.0
2019-May-19 13:59N 52°28' E 004°35'0 0.0
2019-May-19 13:29N 52°28' E 004°35'0 0.0
2019-May-19 12:56N 52°28' E 004°35'0 0.0
2019-May-19 12:25N 52°28' E 004°35'0 0.0
2019-May-19 11:59N 52°28' E 004°35'0 0.0
2019-May-19 11:26N 52°28' E 004°35'0 0.0
2019-May-19 10:56N 52°28' E 004°35'0 0.0
2019-May-19 10:26N 52°28' E 004°35'0 0.0
2019-May-19 09:59N 52°28' E 004°35'0 0.0
2019-May-19 09:28N 52°28' E 004°35'0 0.0
2019-May-19 08:59N 52°28' E 004°35'0 0.0
2019-May-19 08:25N 52°28' E 004°35'0 0.0
2019-May-19 07:59N 52°28' E 004°35'0 0.4
2019-May-19 07:30N 52°28' E 004°35'5 9.1
2019-May-19 07:00N 52°29' E 004°28'917.5
2019-May-19 06:30N 52°35' E 004°18'917.4
2019-May-19 06:00N 52°41' E 004°07'917.2
2019-May-19 05:30N 52°47' E 003°57'917.2
2019-May-19 05:00N 52°53' E 003°46'917.2
2019-May-19 04:30N 52°58' E 003°35'917.6
2019-May-19 04:00N 53°04' E 003°24'917.5
2019-May-19 03:30N 53°09' E 003°12'917.4
2019-May-19 03:00N 53°14' E 003°00'1217.0
2019-May-19 02:19N 53°21' E 002°44'516.7
2019-May-19 02:00N 53°24' E 002°37'816.5
2019-May-19 01:30N 53°29' E 002°26'816.3
2019-May-19 01:00N 53°34' E 002°15'816.5
2019-May-19 00:30N 53°37' E 002°03'816.5
2019-May-19 00:00N 53°41' E 001°50'816.3
2019-May-18 23:30N 53°45' E 001°38'816.2
2019-May-18 23:00N 53°51' E 001°29'816.6
2019-May-18 22:30N 53°57' E 001°20'816.9
2019-May-18 22:00N 54°03' E 001°10'917.1
2019-May-18 21:30N 54°08' E 000°58'3017.2
2019-May-18 19:47N 54°24' E 000°14'5618.3
2019-May-18 16:43N 54°54' W 001°07'418.9
2019-May-18 16:29N 54°57' W 001°13'815.5
2019-May-18 15:58N 55°01' W 001°26'1 2.9
2019-May-18 15:30N 54°59' W 001°27'0 0.0
2019-May-18 15:00N 54°59' W 001°27'0 0.0
2019-May-18 14:28N 54°59' W 001°27'0 0.0
2019-May-18 13:58N 54°59' W 001°27'0 0.0
2019-May-18 13:28N 54°59' W 001°27'0 0.0
2019-May-18 12:58N 54°59' W 001°27'0 0.0
2019-May-18 12:28N 54°59' W 001°27'0 0.0
2019-May-18 11:58N 54°59' W 001°27'0 0.0
2019-May-18 11:19N 54°59' W 001°27'0 0.0
2019-May-18 10:43N 54°59' W 001°27'0 0.0
2019-May-18 10:28N 54°59' W 001°27'0 0.0
2019-May-18 09:58N 54°59' W 001°27'0 0.0
2019-May-18 09:19N 54°59' W 001°27'0 0.0
2019-May-18 08:52N 54°59' W 001°27'0 0.0
2019-May-18 08:23N 54°59' W 001°27'1 2.1
2019-May-18 08:00N 55°00' W 001°27'611.5
2019-May-18 07:30N 54°60' W 001°17'917.0
2019-May-18 07:00N 54°55' W 001°04'8515.4
2019-May-18 01:30N 54°07' E 000°57'816.6
2019-May-18 01:00N 54°02' E 001°08'917.0
2019-May-18 00:29N 53°57' E 001°21'817.5
2019-May-18 00:00N 53°52' E 001°31'1017.6
2019-May-17 23:27N 53°47' E 001°46'12518.7
2019-May-17 16:46N 52°30' E 004°30'1019.4
2019-May-17 16:16N 52°36' E 004°18'416.7
2019-May-17 16:00N 52°33' E 004°23'816.3
2019-May-17 15:31N 52°28' E 004°33'1 2.0
2019-May-17 15:00N 52°28' E 004°35'0 0.0
2019-May-17 14:30N 52°28' E 004°35'0 0.0
2019-May-17 14:00N 52°28' E 004°35'0 0.0
2019-May-17 13:30N 52°28' E 004°35'0 0.0
2019-May-17 13:00N 52°28' E 004°35'0 0.0
2019-May-17 12:30N 52°28' E 004°35'0 0.0
2019-May-17 12:00N 52°28' E 004°35'0 0.0
2019-May-17 11:30N 52°28' E 004°35'0 0.0
2019-May-17 11:00N 52°28' E 004°35'0 0.0
2019-May-17 10:30N 52°28' E 004°35'0 0.0
2019-May-17 10:00N 52°28' E 004°35'0 0.0
2019-May-17 09:30N 52°28' E 004°35'0 0.0
2019-May-17 09:00N 52°28' E 004°35'0 0.0
2019-May-17 08:30N 52°28' E 004°35'0 0.0
2019-May-17 08:00N 52°28' E 004°35'0 0.3
2019-May-17 07:31N 52°28' E 004°35'510.7
2019-May-17 07:00N 52°30' E 004°27'917.2
2019-May-17 06:30N 52°36' E 004°17'917.4
2019-May-17 05:59N 52°42' E 004°05'7817.5
2019-May-17 01:34N 53°30' E 002°24'517.1
2019-May-17 01:17N 53°33' E 002°18'516.9
2019-May-17 01:00N 53°35' E 002°11'917.0
2019-May-17 00:30N 53°39' E 001°58'816.9
2019-May-17 00:00N 53°43' E 001°46'816.9
2019-May-16 23:30N 53°48' E 001°34'817.0
2019-May-16 23:00N 53°54' E 001°24'816.7
2019-May-16 22:30N 53°60' E 001°14'816.6
2019-May-16 22:00N 54°05' E 001°03'816.6
2019-May-16 21:30N 54°10' E 000°52'816.6
2019-May-16 21:00N 54°15' E 000°40'1016.8
2019-May-16 20:23N 54°22' E 000°26'716.9
2019-May-16 19:57N 54°26' E 000°16'717.0
2019-May-16 19:30N 54°30' E 000°05'917.1
2019-May-16 19:00N 54°35' W 000°07'917.2
2019-May-16 18:30N 54°39' W 000°20'1617.4
2019-May-16 17:34N 54°47' W 000°45'218.0
2019-May-16 17:26N 54°48' W 000°48'818.0
2019-May-16 17:00N 54°52' W 000°60'918.1
2019-May-16 16:29N 54°57' W 001°13'815.6
2019-May-16 16:00N 55°01' W 001°25'2 3.1
2019-May-16 15:30N 54°59' W 001°27'0 0.0
2019-May-16 14:58N 54°59' W 001°27'0 0.0
2019-May-16 14:28N 54°59' W 001°27'0 0.0
2019-May-16 13:58N 54°59' W 001°27'0 0.0
2019-May-16 13:28N 54°59' W 001°27'0 0.0
2019-May-16 12:58N 54°59' W 001°27'0 0.0
2019-May-16 12:10N 54°59' W 001°27'0 0.0
2019-May-16 11:58N 54°59' W 001°27'0 0.0
2019-May-16 11:28N 54°59' W 001°27'0 0.0
2019-May-16 10:58N 54°59' W 001°27'0 0.0
2019-May-16 10:19N 54°59' W 001°27'0 0.0
2019-May-16 09:49N 54°59' W 001°27'0 0.0
2019-May-16 09:19N 54°59' W 001°27'0 0.0
2019-May-16 08:49N 54°59' W 001°27'0 0.0
2019-May-16 08:22N 54°59' W 001°27'0 0.4
2019-May-16 08:00N 54°60' W 001°27'4 9.1
2019-May-16 07:30N 54°60' W 001°19'816.9
2019-May-16 07:00N 54°55' W 001°08'10916.1
2019-May-16 00:13N 53°53' E 001°27'616.2
2019-May-15 23:50N 53°50' E 001°36'916.6
2019-May-15 23:16N 53°46' E 001°51'2917.6
2019-May-15 21:36N 53°30' E 002°32'217.6
2019-May-15 21:28N 53°28' E 002°35'917.3
2019-May-15 20:57N 53°22' E 002°46'1216.6
2019-May-15 20:16N 53°14' E 002°59'416.5
2019-May-15 20:00N 53°10' E 003°03'816.3
2019-May-15 19:30N 53°04' E 003°12'1016.1
2019-May-15 18:54N 52°58' E 003°24'716.3
2019-May-15 18:30N 52°54' E 003°34'816.1
2019-May-15 18:00N 52°50' E 003°45'816.0
2019-May-15 17:30N 52°46' E 003°56'815.6
2019-May-15 17:00N 52°41' E 004°06'815.3
2019-May-15 16:30N 52°36' E 004°16'815.4
2019-May-15 16:00N 52°31' E 004°26'713.2
2019-May-15 15:30N 52°28' E 004°35'0 0.3
2019-May-15 15:00N 52°28' E 004°35'0 0.0
2019-May-15 14:28N 52°28' E 004°35'0 0.0
2019-May-15 13:58N 52°28' E 004°35'0 0.0
2019-May-15 13:28N 52°28' E 004°35'0 0.0
2019-May-15 12:58N 52°28' E 004°35'0 0.0
2019-May-15 12:28N 52°28' E 004°35'0 0.0
2019-May-15 11:58N 52°28' E 004°35'0 0.0
2019-May-15 11:28N 52°28' E 004°35'0 0.0
2019-May-15 10:58N 52°28' E 004°35'0 0.0
2019-May-15 10:28N 52°28' E 004°35'0 0.0
2019-May-15 09:58N 52°28' E 004°35'0 0.0
2019-May-15 09:28N 52°28' E 004°35'0 0.0
2019-May-15 08:58N 52°28' E 004°35'0 0.0
2019-May-15 08:28N 52°28' E 004°35'0 0.0
2019-May-15 07:58N 52°28' E 004°35'0 0.1
2019-May-15 07:31N 52°28' E 004°35'4 8.6
2019-May-15 07:00N 52°29' E 004°28'815.6
2019-May-15 06:30N 52°35' E 004°19'815.7
2019-May-15 06:00N 52°40' E 004°09'815.6
2019-May-15 05:30N 52°44' E 003°59'815.7
2019-May-15 04:59N 52°50' E 003°48'1016.0
2019-May-15 04:21N 52°56' E 003°36'716.2
2019-May-15 03:55N 53°01' E 003°28'716.2
2019-May-15 03:30N 53°05' E 003°19'816.3
2019-May-15 02:59N 53°11' E 003°08'817.5
2019-May-15 02:30N 53°15' E 002°56'918.5
2019-May-15 02:00N 53°21' E 002°44'918.3
2019-May-15 01:30N 53°26' E 002°32'918.2
2019-May-15 01:00N 53°32' E 002°20'918.1
2019-May-15 00:30N 53°36' E 002°06'918.0
2019-May-15 00:00N 53°40' E 001°52'918.1
2019-May-14 23:30N 53°44' E 001°39'917.7
2019-May-14 23:00N 53°51' E 001°29'917.5
2019-May-14 22:30N 53°57' E 001°18'1217.2
2019-May-14 21:48N 54°05' E 001°03'517.1
2019-May-14 21:30N 54°08' E 000°56'917.1
2019-May-14 21:00N 54°13' E 000°44'917.2
2019-May-14 20:30N 54°18' E 000°32'817.2
2019-May-14 20:00N 54°23' E 000°19'917.1
2019-May-14 19:29N 54°27' E 000°06'4717.1
2019-May-14 16:43N 54°53' W 001°03'417.6
2019-May-14 16:30N 54°55' W 001°08'917.5
2019-May-14 16:00N 54°60' W 001°21'4 7.3
2019-May-14 15:30N 54°59' W 001°27'0 0.0
2019-May-14 15:00N 54°59' W 001°27'0 0.0
2019-May-14 14:27N 54°59' W 001°27'0 0.0
2019-May-14 14:00N 54°59' W 001°27'0 0.0
2019-May-14 13:12N 54°59' W 001°27'0 0.0
2019-May-14 12:57N 54°59' W 001°27'0 0.0
2019-May-14 12:27N 54°59' W 001°27'0 0.0
2019-May-14 11:57N 54°59' W 001°27'0 0.0
2019-May-14 11:27N 54°59' W 001°27'0 0.0
2019-May-14 10:57N 54°59' W 001°27'0 0.0
2019-May-14 10:30N 54°59' W 001°27'0 0.0
2019-May-14 10:00N 54°59' W 001°27'0 0.0
2019-May-14 09:18N 54°59' W 001°27'0 0.0
2019-May-14 08:51N 54°59' W 001°27'0 0.0
2019-May-14 08:21N 54°59' W 001°27'0 0.6
2019-May-14 08:00N 54°60' W 001°27'510.4
2019-May-14 07:30N 54°60' W 001°18'816.1
2019-May-14 07:00N 54°55' W 001°06'816.4
2019-May-14 06:29N 54°50' W 000°54'6415.9
2019-May-14 02:30N 54°15' E 000°37'4315.3
2019-May-13 23:39N 53°49' E 001°36'215.5
2019-May-13 23:29N 53°48' E 001°40'815.8
2019-May-13 23:00N 53°45' E 001°52'1316.7
2019-May-13 22:13N 53°39' E 002°12'417.1
2019-May-13 22:00N 53°37' E 002°17'917.3
2019-May-13 21:30N 53°32' E 002°28'917.5
2019-May-13 20:59N 53°26' E 002°40'1317.5
2019-May-13 20:13N 53°17' E 002°57'1017.1
2019-May-13 19:36N 53°11' E 003°11'716.9
2019-May-13 19:13N 53°06' E 003°19'516.7
2019-May-13 18:54N 53°03' E 003°26'616.5
2019-May-13 18:30N 52°59' E 003°34'2816.0
2019-May-13 16:44N 52°40' E 004°09'515.6
2019-May-13 16:26N 52°37' E 004°15'615.3
2019-May-13 16:00N 52°32' E 004°23'714.6
2019-May-13 15:31N 52°28' E 004°32'2 3.3
2019-May-13 15:00N 52°28' E 004°35'0 0.0
2019-May-13 14:28N 52°28' E 004°35'0 0.0
2019-May-13 13:28N 52°28' E 004°35'0 0.0
2019-May-13 12:58N 52°28' E 004°35'0 0.0
2019-May-13 12:28N 52°28' E 004°35'0 0.0
2019-May-13 11:58N 52°28' E 004°35'0 0.0
2019-May-13 11:25N 52°28' E 004°35'0 0.0
2019-May-13 10:58N 52°28' E 004°35'0 0.0
2019-May-13 10:28N 52°28' E 004°35'0 0.0
2019-May-13 09:58N 52°28' E 004°35'0 0.0
2019-May-13 09:28N 52°28' E 004°35'0 0.0
2019-May-13 08:58N 52°28' E 004°35'0 0.0
2019-May-13 08:28N 52°28' E 004°35'0 0.0
2019-May-13 07:55N 52°28' E 004°35'0 0.0
2019-May-13 07:30N 52°28' E 004°35'4 8.5
2019-May-13 07:00N 52°29' E 004°28'815.3
2019-May-13 06:30N 52°34' E 004°20'815.5
2019-May-13 06:00N 52°40' E 004°10'1215.8
2019-May-13 05:14N 52°48' E 003°55'715.9
2019-May-13 04:47N 52°52' E 003°47'1515.9
2019-May-13 03:49N 53°02' E 003°27'815.9
2019-May-13 03:19N 53°07' E 003°16'616.3
2019-May-13 02:57N 53°10' E 003°08'716.6
2019-May-13 02:30N 53°15' E 002°58'916.8
2019-May-13 02:00N 53°20' E 002°46'816.8
2019-May-13 01:30N 53°24' E 002°35'816.7
2019-May-13 01:00N 53°30' E 002°24'1316.7
2019-May-13 00:14N 53°36' E 002°05'416.5
2019-May-12 23:59N 53°38' E 001°59'1818.2
2019-May-12 23:01N 53°48' E 001°35'018.7
2019-May-12 23:00N 53°48' E 001°35'1418.7
2019-May-12 22:15N 53°59' E 001°18'518.7
2019-May-12 22:00N 54°01' E 001°12'918.5
2019-May-12 21:30N 54°07' E 000°59'918.3
2019-May-12 21:00N 54°12' E 000°46'918.4
2019-May-12 20:30N 54°17' E 000°33'1018.3
2019-May-12 19:56N 54°23' E 000°19'1018.2
2019-May-12 19:24N 54°28' E 000°04'1917.9
2019-May-12 18:20N 54°39' W 000°24'2317.4
2019-May-12 17:01N 54°51' W 000°57'017.4
2019-May-12 17:00N 54°51' W 000°57'917.5
2019-May-12 16:29N 54°56' W 001°11'817.1
2019-May-12 16:00N 55°00' W 001°22'3 5.6
2019-May-12 15:30N 54°59' W 001°27'0 0.0
2019-May-12 15:01N 54°59' W 001°27'0 0.0
2019-May-12 14:29N 54°59' W 001°27'0 0.0
2019-May-12 13:59N 54°59' W 001°27'0 0.0
2019-May-12 13:29N 54°59' W 001°27'0 0.0
2019-May-12 12:56N 54°59' W 001°27'0 0.0
2019-May-12 12:29N 54°59' W 001°27'0 0.0
2019-May-12 11:59N 54°59' W 001°27'0 0.0
2019-May-12 11:29N 54°59' W 001°27'0 0.0
2019-May-12 10:59N 54°59' W 001°27'0 0.0
2019-May-12 10:29N 54°59' W 001°27'0 0.0
2019-May-12 09:59N 54°59' W 001°27'0 0.0
2019-May-12 09:29N 54°59' W 001°27'0 0.0
2019-May-12 08:59N 54°59' W 001°27'0 0.0
2019-May-12 08:29N 54°59' W 001°27'0 0.2
2019-May-12 08:00N 54°60' W 001°27'4 8.7
2019-May-12 07:30N 55°00' W 001°19'1017.6
2019-May-12 06:57N 54°55' W 001°05'3818.1
2019-May-12 04:53N 54°34' W 000°11'1018.6
2019-May-12 04:21N 54°28' E 000°03'618.8
2019-May-12 04:00N 54°24' E 000°12'919.0
2019-May-12 03:30N 54°19' E 000°25'918.9
2019-May-12 03:00N 54°13' E 000°38'918.5
2019-May-12 02:30N 54°09' E 000°52'15315.8
2019-May-11 16:51N 52°37' E 004°16'515.4
2019-May-11 16:30N 52°33' E 004°22'815.0
2019-May-11 16:00N 52°28' E 004°31'2 4.6
2019-May-11 15:30N 52°28' E 004°35'0 0.0
2019-May-11 15:00N 52°28' E 004°35'0 0.0
2019-May-11 14:25N 52°28' E 004°35'0 0.0
2019-May-11 13:58N 52°28' E 004°35'0 0.0
2019-May-11 13:28N 52°28' E 004°35'0 0.0
2019-May-11 12:55N 52°28' E 004°35'0 0.0
2019-May-11 12:25N 52°28' E 004°35'0 0.0
2019-May-11 11:58N 52°28' E 004°35'0 0.0
2019-May-11 11:28N 52°28' E 004°35'0 0.0
2019-May-11 10:55N 52°28' E 004°35'0 0.0
2019-May-11 10:28N 52°28' E 004°35'0 0.0
2019-May-11 09:58N 52°28' E 004°35'0 0.0
2019-May-11 09:25N 52°28' E 004°35'0 0.0
2019-May-11 08:58N 52°28' E 004°35'0 0.0
2019-May-11 08:28N 52°28' E 004°35'0 0.0
2019-May-11 07:58N 52°28' E 004°35'0 0.4
2019-May-11 07:30N 52°28' E 004°35'5 9.9
2019-May-11 07:01N 52°29' E 004°27'715.0
2019-May-11 06:31N 52°35' E 004°19'815.4
2019-May-11 05:58N 52°40' E 004°09'3315.7
2019-May-11 03:50N 53°02' E 003°27'19318.1
2019-May-10 17:12N 54°53' W 001°01'418.4
2019-May-10 17:00N 54°55' W 001°07'918.5
2019-May-10 16:30N 54°60' W 001°20'  
Track history (hours):
 
Tides and Currents Weather Stations Pressure Air Temp Water Temp Dewpoint Dewpoint Depression Visibility Wind Speed Wind Dir Waves Ship Positions

King of Scandinavia

Ship's website: http://www.dfds.co.uk/DSW/EN/OnBoard/na/KING.htm

Last reported at 2019-May-20 16:30 UTC. Time now 2019-May-20 16:57 UTC.
Position N 54°57' W 001°13'.

Length 166 m; beam 27.6 m; draft 6.2 m.

Type: Ship. MMSI: 220449000.

Date/timePositionNaut miles runAvg speedWind from/ knotsBaromVisibWave heightAir tempDewpointWater temp
2019-May-20 16:30N 54°57' W 001°13'816.1
2019-May-20 16:00N 55°01' W 001°26'1 2.6
2019-May-20 15:30N 54°59' W 001°27'0 0.0
2019-May-20 14:59N 54°59' W 001°27'0 0.0
2019-May-20 14:29N 54°59' W 001°27'0 0.0
2019-May-20 13:59N 54°59' W 001°27'0 0.0
2019-May-20 13:29N 54°59' W 001°27'0 0.0
2019-May-20 12:59N 54°59' W 001°27'0 0.0
2019-May-20 12:29N 54°59' W 001°27'0 0.0
2019-May-20 11:59N 54°59' W 001°27'0 0.0
2019-May-20 11:20N 54°59' W 001°27'0 0.0
2019-May-20 10:50N 54°59' W 001°27'0 0.0
2019-May-20 10:20N 54°59' W 001°27'0 0.0
2019-May-20 09:50N 54°59' W 001°27'0 0.0
2019-May-20 09:23N 54°59' W 001°27'0 0.0
2019-May-20 08:56N 54°59' W 001°27'0 0.0
2019-May-20 08:23N 54°59' W 001°27'0 0.5
2019-May-20 08:00N 54°60' W 001°27'5 9.3
2019-May-20 07:30N 54°60' W 001°19'1019.6
2019-May-20 07:00N 54°54' W 001°05'7917.8
2019-May-20 02:33N 54°10' E 000°49'316.4
2019-May-20 02:23N 54°09' E 000°52'716.7
2019-May-20 02:00N 54°05' E 001°02'817.1
2019-May-20 01:30N 53°60' E 001°13'917.4
2019-May-20 01:00N 53°54' E 001°24'917.5
2019-May-20 00:30N 53°49' E 001°36'917.0
2019-May-20 00:00N 53°47' E 001°50'816.9
2019-May-19 23:31N 53°43' E 002°03'916.6
2019-May-19 22:59N 53°39' E 002°16'7614.7
2019-May-19 17:49N 52°49' E 003°52'2015.2
2019-May-19 16:31N 52°36' E 004°17'014.0
2019-May-19 16:31N 52°36' E 004°17'815.5
2019-May-19 16:01N 52°31' E 004°27'611.8
2019-May-19 15:30N 52°28' E 004°35'0 0.3
2019-May-19 15:00N 52°28' E 004°35'0 0.0
2019-May-19 14:29N 52°28' E 004°35'0 0.0
2019-May-19 13:59N 52°28' E 004°35'0 0.0
2019-May-19 13:29N 52°28' E 004°35'0 0.0
2019-May-19 12:56N 52°28' E 004°35'0 0.0
2019-May-19 12:25N 52°28' E 004°35'0 0.0
2019-May-19 11:59N 52°28' E 004°35'0 0.0
2019-May-19 11:26N 52°28' E 004°35'0 0.0
2019-May-19 10:56N 52°28' E 004°35'0 0.0
2019-May-19 10:26N 52°28' E 004°35'0 0.0
2019-May-19 09:59N 52°28' E 004°35'0 0.0
2019-May-19 09:28N 52°28' E 004°35'0 0.0
2019-May-19 08:59N 52°28' E 004°35'0 0.0
2019-May-19 08:25N 52°28' E 004°35'0 0.0
2019-May-19 07:59N 52°28' E 004°35'0 0.4
2019-May-19 07:30N 52°28' E 004°35'5 9.1
2019-May-19 07:00N 52°29' E 004°28'917.5
2019-May-19 06:30N 52°35' E 004°18'917.4
2019-May-19 06:00N 52°41' E 004°07'917.2
2019-May-19 05:30N 52°47' E 003°57'917.2
2019-May-19 05:00N 52°53' E 003°46'917.2
2019-May-19 04:30N 52°58' E 003°35'917.6
2019-May-19 04:00N 53°04' E 003°24'917.5
2019-May-19 03:30N 53°09' E 003°12'917.4
2019-May-19 03:00N 53°14' E 003°00'1217.0
2019-May-19 02:19N 53°21' E 002°44'516.7
2019-May-19 02:00N 53°24' E 002°37'816.5
2019-May-19 01:30N 53°29' E 002°26'816.3
2019-May-19 01:00N 53°34' E 002°15'816.5
2019-May-19 00:30N 53°37' E 002°03'816.5
2019-May-19 00:00N 53°41' E 001°50'816.3
2019-May-18 23:30N 53°45' E 001°38'816.2
2019-May-18 23:00N 53°51' E 001°29'816.6
2019-May-18 22:30N 53°57' E 001°20'816.9
2019-May-18 22:00N 54°03' E 001°10'917.1
2019-May-18 21:30N 54°08' E 000°58'3017.2
2019-May-18 19:47N 54°24' E 000°14'5618.3
2019-May-18 16:43N 54°54' W 001°07'418.9
2019-May-18 16:29N 54°57' W 001°13'815.5
2019-May-18 15:58N 55°01' W 001°26'1 2.9
2019-May-18 15:30N 54°59' W 001°27'0 0.0
2019-May-18 15:00N 54°59' W 001°27'0 0.0
2019-May-18 14:28N 54°59' W 001°27'0 0.0
2019-May-18 13:58N 54°59' W 001°27'0 0.0
2019-May-18 13:28N 54°59' W 001°27'0 0.0
2019-May-18 12:58N 54°59' W 001°27'0 0.0
2019-May-18 12:28N 54°59' W 001°27'0 0.0
2019-May-18 11:58N 54°59' W 001°27'0 0.0
2019-May-18 11:19N 54°59' W 001°27'0 0.0
2019-May-18 10:43N 54°59' W 001°27'0 0.0
2019-May-18 10:28N 54°59' W 001°27'0 0.0
2019-May-18 09:58N 54°59' W 001°27'0 0.0
2019-May-18 09:19N 54°59' W 001°27'0 0.0
2019-May-18 08:52N 54°59' W 001°27'0 0.0
2019-May-18 08:23N 54°59' W 001°27'1 2.1
2019-May-18 08:00N 55°00' W 001°27'611.5
2019-May-18 07:30N 54°60' W 001°17'917.0
2019-May-18 07:00N 54°55' W 001°04'8515.4
2019-May-18 01:30N 54°07' E 000°57'816.6
2019-May-18 01:00N 54°02' E 001°08'917.0
2019-May-18 00:29N 53°57' E 001°21'817.5
2019-May-18 00:00N 53°52' E 001°31'1017.6
2019-May-17 23:27N 53°47' E 001°46'12518.7
2019-May-17 16:46N 52°30' E 004°30'1019.4
2019-May-17 16:16N 52°36' E 004°18'416.7
2019-May-17 16:00N 52°33' E 004°23'816.3
2019-May-17 15:31N 52°28' E 004°33'1 2.0
2019-May-17 15:00N 52°28' E 004°35'0 0.0
2019-May-17 14:30N 52°28' E 004°35'0 0.0
2019-May-17 14:00N 52°28' E 004°35'0 0.0
2019-May-17 13:30N 52°28' E 004°35'0 0.0
2019-May-17 13:00N 52°28' E 004°35'0 0.0
2019-May-17 12:30N 52°28' E 004°35'0 0.0
2019-May-17 12:00N 52°28' E 004°35'0 0.0
2019-May-17 11:30N 52°28' E 004°35'0 0.0
2019-May-17 11:00N 52°28' E 004°35'0 0.0
2019-May-17 10:30N 52°28' E 004°35'0 0.0
2019-May-17 10:00N 52°28' E 004°35'0 0.0
2019-May-17 09:30N 52°28' E 004°35'0 0.0
2019-May-17 09:00N 52°28' E 004°35'0 0.0
2019-May-17 08:30N 52°28' E 004°35'0 0.0
2019-May-17 08:00N 52°28' E 004°35'0 0.3
2019-May-17 07:31N 52°28' E 004°35'510.7
2019-May-17 07:00N 52°30' E 004°27'917.2
2019-May-17 06:30N 52°36' E 004°17'917.4
2019-May-17 05:59N 52°42' E 004°05'7817.5
2019-May-17 01:34N 53°30' E 002°24'517.1
2019-May-17 01:17N 53°33' E 002°18'516.9
2019-May-17 01:00N 53°35' E 002°11'917.0
2019-May-17 00:30N 53°39' E 001°58'816.9
2019-May-17 00:00N 53°43' E 001°46'816.9
2019-May-16 23:30N 53°48' E 001°34'817.0
2019-May-16 23:00N 53°54' E 001°24'816.7
2019-May-16 22:30N 53°60' E 001°14'816.6
2019-May-16 22:00N 54°05' E 001°03'816.6
2019-May-16 21:30N 54°10' E 000°52'816.6
2019-May-16 21:00N 54°15' E 000°40'1016.8
2019-May-16 20:23N 54°22' E 000°26'716.9
2019-May-16 19:57N 54°26' E 000°16'717.0
2019-May-16 19:30N 54°30' E 000°05'917.1
2019-May-16 19:00N 54°35' W 000°07'917.2
2019-May-16 18:30N 54°39' W 000°20'1617.4
2019-May-16 17:34N 54°47' W 000°45'218.0
2019-May-16 17:26N 54°48' W 000°48'818.0
2019-May-16 17:00N 54°52' W 000°60'918.1
2019-May-16 16:29N 54°57' W 001°13'815.6
2019-May-16 16:00N 55°01' W 001°25'2 3.1
2019-May-16 15:30N 54°59' W 001°27'0 0.0
2019-May-16 14:58N 54°59' W 001°27'0 0.0
2019-May-16 14:28N 54°59' W 001°27'0 0.0
2019-May-16 13:58N 54°59' W 001°27'0 0.0
2019-May-16 13:28N 54°59' W 001°27'0 0.0
2019-May-16 12:58N 54°59' W 001°27'0 0.0
2019-May-16 12:10N 54°59' W 001°27'0 0.0
2019-May-16 11:58N 54°59' W 001°27'0 0.0
2019-May-16 11:28N 54°59' W 001°27'0 0.0
2019-May-16 10:58N 54°59' W 001°27'0 0.0
2019-May-16 10:19N 54°59' W 001°27'0 0.0
2019-May-16 09:49N 54°59' W 001°27'0 0.0
2019-May-16 09:19N 54°59' W 001°27'0 0.0
2019-May-16 08:49N 54°59' W 001°27'0 0.0
2019-May-16 08:22N 54°59' W 001°27'0 0.4
2019-May-16 08:00N 54°60' W 001°27'4 9.1
2019-May-16 07:30N 54°60' W 001°19'816.9
2019-May-16 07:00N 54°55' W 001°08'10916.1
2019-May-16 00:13N 53°53' E 001°27'616.2
2019-May-15 23:50N 53°50' E 001°36'916.6
2019-May-15 23:16N 53°46' E 001°51'2917.6
2019-May-15 21:36N 53°30' E 002°32'217.6
2019-May-15 21:28N 53°28' E 002°35'917.3
2019-May-15 20:57N 53°22' E 002°46'1216.6
2019-May-15 20:16N 53°14' E 002°59'416.5
2019-May-15 20:00N 53°10' E 003°03'816.3
2019-May-15 19:30N 53°04' E 003°12'1016.1
2019-May-15 18:54N 52°58' E 003°24'716.3
2019-May-15 18:30N 52°54' E 003°34'816.1
2019-May-15 18:00N 52°50' E 003°45'816.0
2019-May-15 17:30N 52°46' E 003°56'815.6
2019-May-15 17:00N 52°41' E 004°06'815.3
2019-May-15 16:30N 52°36' E 004°16'815.4
2019-May-15 16:00N 52°31' E 004°26'713.2
2019-May-15 15:30N 52°28' E 004°35'0 0.3
2019-May-15 15:00N 52°28' E 004°35'0 0.0
2019-May-15 14:28N 52°28' E 004°35'0 0.0
2019-May-15 13:58N 52°28' E 004°35'0 0.0
2019-May-15 13:28N 52°28' E 004°35'0 0.0
2019-May-15 12:58N 52°28' E 004°35'0 0.0
2019-May-15 12:28N 52°28' E 004°35'0 0.0
2019-May-15 11:58N 52°28' E 004°35'0 0.0
2019-May-15 11:28N 52°28' E 004°35'0 0.0
2019-May-15 10:58N 52°28' E 004°35'0 0.0
2019-May-15 10:28N 52°28' E 004°35'0 0.0
2019-May-15 09:58N 52°28' E 004°35'0 0.0
2019-May-15 09:28N 52°28' E 004°35'0 0.0
2019-May-15 08:58N 52°28' E 004°35'0 0.0
2019-May-15 08:28N 52°28' E 004°35'0 0.0
2019-May-15 07:58N 52°28' E 004°35'0 0.1
2019-May-15 07:31N 52°28' E 004°35'4 8.6
2019-May-15 07:00N 52°29' E 004°28'815.6
2019-May-15 06:30N 52°35' E 004°19'815.7
2019-May-15 06:00N 52°40' E 004°09'815.6
2019-May-15 05:30N 52°44' E 003°59'815.7
2019-May-15 04:59N 52°50' E 003°48'1016.0
2019-May-15 04:21N 52°56' E 003°36'716.2
2019-May-15 03:55N 53°01' E 003°28'716.2
2019-May-15 03:30N 53°05' E 003°19'816.3
2019-May-15 02:59N 53°11' E 003°08'817.5
2019-May-15 02:30N 53°15' E 002°56'918.5
2019-May-15 02:00N 53°21' E 002°44'918.3
2019-May-15 01:30N 53°26' E 002°32'918.2
2019-May-15 01:00N 53°32' E 002°20'918.1
2019-May-15 00:30N 53°36' E 002°06'918.0
2019-May-15 00:00N 53°40' E 001°52'918.1
2019-May-14 23:30N 53°44' E 001°39'917.7
2019-May-14 23:00N 53°51' E 001°29'917.5
2019-May-14 22:30N 53°57' E 001°18'1217.2
2019-May-14 21:48N 54°05' E 001°03'517.1
2019-May-14 21:30N 54°08' E 000°56'917.1
2019-May-14 21:00N 54°13' E 000°44'917.2
2019-May-14 20:30N 54°18' E 000°32'817.2
2019-May-14 20:00N 54°23' E 000°19'917.1
2019-May-14 19:29N 54°27' E 000°06'4717.1
2019-May-14 16:43N 54°53' W 001°03'417.6
2019-May-14 16:30N 54°55' W 001°08'917.5
2019-May-14 16:00N 54°60' W 001°21'4 7.3
2019-May-14 15:30N 54°59' W 001°27'0 0.0
2019-May-14 15:00N 54°59' W 001°27'0 0.0
2019-May-14 14:27N 54°59' W 001°27'0 0.0
2019-May-14 14:00N 54°59' W 001°27'0 0.0
2019-May-14 13:12N 54°59' W 001°27'0 0.0
2019-May-14 12:57N 54°59' W 001°27'0 0.0
2019-May-14 12:27N 54°59' W 001°27'0 0.0
2019-May-14 11:57N 54°59' W 001°27'0 0.0
2019-May-14 11:27N 54°59' W 001°27'0 0.0
2019-May-14 10:57N 54°59' W 001°27'0 0.0
2019-May-14 10:30N 54°59' W 001°27'0 0.0
2019-May-14 10:00N 54°59' W 001°27'0 0.0
2019-May-14 09:18N 54°59' W 001°27'0 0.0
2019-May-14 08:51N 54°59' W 001°27'0 0.0
2019-May-14 08:21N 54°59' W 001°27'0 0.6
2019-May-14 08:00N 54°60' W 001°27'510.4
2019-May-14 07:30N 54°60' W 001°18'816.1
2019-May-14 07:00N 54°55' W 001°06'816.4
2019-May-14 06:29N 54°50' W 000°54'6415.9
2019-May-14 02:30N 54°15' E 000°37'4315.3
2019-May-13 23:39N 53°49' E 001°36'215.5
2019-May-13 23:29N 53°48' E 001°40'815.8
2019-May-13 23:00N 53°45' E 001°52'1316.7
2019-May-13 22:13N 53°39' E 002°12'417.1
2019-May-13 22:00N 53°37' E 002°17'917.3
2019-May-13 21:30N 53°32' E 002°28'917.5
2019-May-13 20:59N 53°26' E 002°40'1317.5
2019-May-13 20:13N 53°17' E 002°57'1017.1
2019-May-13 19:36N 53°11' E 003°11'716.9
2019-May-13 19:13N 53°06' E 003°19'516.7
2019-May-13 18:54N 53°03' E 003°26'616.5
2019-May-13 18:30N 52°59' E 003°34'2816.0
2019-May-13 16:44N 52°40' E 004°09'515.6
2019-May-13 16:26N 52°37' E 004°15'615.3
2019-May-13 16:00N 52°32' E 004°23'714.6
2019-May-13 15:31N 52°28' E 004°32'2 3.3
2019-May-13 15:00N 52°28' E 004°35'0 0.0
2019-May-13 14:28N 52°28' E 004°35'0 0.0
2019-May-13 13:28N 52°28' E 004°35'0 0.0
2019-May-13 12:58N 52°28' E 004°35'0 0.0
2019-May-13 12:28N 52°28' E 004°35'0 0.0
2019-May-13 11:58N 52°28' E 004°35'0 0.0
2019-May-13 11:25N 52°28' E 004°35'0 0.0
2019-May-13 10:58N 52°28' E 004°35'0 0.0
2019-May-13 10:28N 52°28' E 004°35'0 0.0
2019-May-13 09:58N 52°28' E 004°35'0 0.0
2019-May-13 09:28N 52°28' E 004°35'0 0.0
2019-May-13 08:58N 52°28' E 004°35'0 0.0
2019-May-13 08:28N 52°28' E 004°35'0 0.0
2019-May-13 07:55N 52°28' E 004°35'0 0.0
2019-May-13 07:30N 52°28' E 004°35'4 8.5
2019-May-13 07:00N 52°29' E 004°28'815.3
2019-May-13 06:30N 52°34' E 004°20'815.5
2019-May-13 06:00N 52°40' E 004°10'1215.8
2019-May-13 05:14N 52°48' E 003°55'715.9
2019-May-13 04:47N 52°52' E 003°47'1515.9
2019-May-13 03:49N 53°02' E 003°27'815.9
2019-May-13 03:19N 53°07' E 003°16'616.3
2019-May-13 02:57N 53°10' E 003°08'716.6
2019-May-13 02:30N 53°15' E 002°58'916.8
2019-May-13 02:00N 53°20' E 002°46'816.8
2019-May-13 01:30N 53°24' E 002°35'816.7
2019-May-13 01:00N 53°30' E 002°24'1316.7
2019-May-13 00:14N 53°36' E 002°05'416.5
2019-May-12 23:59N 53°38' E 001°59'1818.2
2019-May-12 23:01N 53°48' E 001°35'018.7
2019-May-12 23:00N 53°48' E 001°35'1418.7
2019-May-12 22:15N 53°59' E 001°18'518.7
2019-May-12 22:00N 54°01' E 001°12'918.5
2019-May-12 21:30N 54°07' E 000°59'918.3
2019-May-12 21:00N 54°12' E 000°46'918.4
2019-May-12 20:30N 54°17' E 000°33'1018.3
2019-May-12 19:56N 54°23' E 000°19'1018.2
2019-May-12 19:24N 54°28' E 000°04'1917.9
2019-May-12 18:20N 54°39' W 000°24'2317.4
2019-May-12 17:01N 54°51' W 000°57'017.4
2019-May-12 17:00N 54°51' W 000°57'917.5
2019-May-12 16:29N 54°56' W 001°11'817.1
2019-May-12 16:00N 55°00' W 001°22'3 5.6
2019-May-12 15:30N 54°59' W 001°27'0 0.0
2019-May-12 15:01N 54°59' W 001°27'0 0.0
2019-May-12 14:29N 54°59' W 001°27'0 0.0
2019-May-12 13:59N 54°59' W 001°27'0 0.0
2019-May-12 13:29N 54°59' W 001°27'0 0.0
2019-May-12 12:56N 54°59' W 001°27'0 0.0
2019-May-12 12:29N 54°59' W 001°27'0 0.0
2019-May-12 11:59N 54°59' W 001°27'0 0.0
2019-May-12 11:29N 54°59' W 001°27'0 0.0
2019-May-12 10:59N 54°59' W 001°27'0 0.0
2019-May-12 10:29N 54°59' W 001°27'0 0.0
2019-May-12 09:59N 54°59' W 001°27'0 0.0
2019-May-12 09:29N 54°59' W 001°27'0 0.0
2019-May-12 08:59N 54°59' W 001°27'0 0.0
2019-May-12 08:29N 54°59' W 001°27'0 0.2
2019-May-12 08:00N 54°60' W 001°27'4 8.7
2019-May-12 07:30N 55°00' W 001°19'1017.6
2019-May-12 06:57N 54°55' W 001°05'3818.1
2019-May-12 04:53N 54°34' W 000°11'1018.6
2019-May-12 04:21N 54°28' E 000°03'618.8
2019-May-12 04:00N 54°24' E 000°12'919.0
2019-May-12 03:30N 54°19' E 000°25'918.9
2019-May-12 03:00N 54°13' E 000°38'918.5
2019-May-12 02:30N 54°09' E 000°52'15315.8
2019-May-11 16:51N 52°37' E 004°16'515.4
2019-May-11 16:30N 52°33' E 004°22'815.0
2019-May-11 16:00N 52°28' E 004°31'2 4.6
2019-May-11 15:30N 52°28' E 004°35'0 0.0
2019-May-11 15:00N 52°28' E 004°35'0 0.0
2019-May-11 14:25N 52°28' E 004°35'0 0.0
2019-May-11 13:58N 52°28' E 004°35'0 0.0
2019-May-11 13:28N 52°28' E 004°35'0 0.0
2019-May-11 12:55N 52°28' E 004°35'0 0.0
2019-May-11 12:25N 52°28' E 004°35'0 0.0
2019-May-11 11:58N 52°28' E 004°35'0 0.0
2019-May-11 11:28N 52°28' E 004°35'0 0.0
2019-May-11 10:55N 52°28' E 004°35'0 0.0
2019-May-11 10:28N 52°28' E 004°35'0 0.0
2019-May-11 09:58N 52°28' E 004°35'0 0.0
2019-May-11 09:25N 52°28' E 004°35'0 0.0
2019-May-11 08:58N 52°28' E 004°35'0 0.0
2019-May-11 08:28N 52°28' E 004°35'0 0.0
2019-May-11 07:58N 52°28' E 004°35'0 0.4
2019-May-11 07:30N 52°28' E 004°35'5 9.9
2019-May-11 07:01N 52°29' E 004°27'715.0
2019-May-11 06:31N 52°35' E 004°19'815.4
2019-May-11 05:58N 52°40' E 004°09'3315.7
2019-May-11 03:50N 53°02' E 003°27'19318.1
2019-May-10 17:12N 54°53' W 001°01'418.4
2019-May-10 17:00N 54°55' W 001°07'918.5
2019-May-10 16:30N 54°60' W 001°20'  

Dump ship's entire track history